createdAt,value
2023-12-21T00:01:02.763Z,7.13
2023-12-21T00:03:34.852Z,7.17
2023-12-21T00:06:13.649Z,7.17
2023-12-21T00:08:45.766Z,7.19
2023-12-21T00:11:18.329Z,7.17
2023-12-21T00:13:59.024Z,7.23
2023-12-21T00:16:32.584Z,7.22
2023-12-21T00:19:01.550Z,7.25
2023-12-21T00:21:31.781Z,7.27
2023-12-21T00:24:06.007Z,7.27
2023-12-21T00:26:41.245Z,7.26
2023-12-21T00:29:17.129Z,7.27
2023-12-21T00:31:51.395Z,7.27
2023-12-21T00:34:26.001Z,7.29
2023-12-21T00:36:58.953Z,7.30
2023-12-21T00:39:33.248Z,7.32
2023-12-21T00:42:04.701Z,7.35
2023-12-21T00:44:38.180Z,7.34
2023-12-21T00:47:14.106Z,7.33
2023-12-21T00:49:52.729Z,7.41
2023-12-21T00:52:25.597Z,7.36
2023-12-21T00:54:55.322Z,7.36
2023-12-21T00:57:27.255Z,7.40
2023-12-21T00:59:58.801Z,7.38
2023-12-21T01:02:39.200Z,7.40
2023-12-21T01:05:08.742Z,7.36
2023-12-21T01:07:38.489Z,7.40
2023-12-21T01:10:13.899Z,7.43
2023-12-21T01:12:49.132Z,7.40
2023-12-21T01:15:23.896Z,7.45
2023-12-21T01:17:58.644Z,7.49
2023-12-21T01:20:27.711Z,7.45
2023-12-21T01:23:02.723Z,7.45
2023-12-21T01:25:31.051Z,7.49
2023-12-21T01:28:05.427Z,7.52
2023-12-21T01:30:40.118Z,7.49
2023-12-21T01:33:16.541Z,7.50
2023-12-21T01:35:51.549Z,7.49
2023-12-21T01:38:26.494Z,7.49
2023-12-21T01:40:53.348Z,7.51
2023-12-21T01:43:20.150Z,7.52
2023-12-21T01:45:49.736Z,7.57
2023-12-21T01:48:19.614Z,7.55
2023-12-21T01:50:51.957Z,7.55
2023-12-21T01:53:21.859Z,7.55
2023-12-21T01:55:57.121Z,7.54
2023-12-21T01:58:30.086Z,7.54
2023-12-21T02:01:00.476Z,7.56
2023-12-21T02:03:35.452Z,7.60
2023-12-21T02:06:08.511Z,7.59
2023-12-21T02:08:41.258Z,7.57
2023-12-21T02:11:09.280Z,7.59
2023-12-21T02:13:38.958Z,7.58
2023-12-21T02:16:19.178Z,7.58
2023-12-21T02:18:51.418Z,7.61
2023-12-21T02:21:23.094Z,7.58
2023-12-21T02:24:00.200Z,7.62
2023-12-21T02:26:30.118Z,7.60
2023-12-21T02:29:04.786Z,7.58
2023-12-21T02:31:37.349Z,7.62
2023-12-21T02:34:07.695Z,7.57
2023-12-21T02:36:39.973Z,7.54
2023-12-21T02:39:11.551Z,7.57
2023-12-21T02:41:43.661Z,7.60
2023-12-21T02:44:18.597Z,7.59
2023-12-21T02:46:48.704Z,7.62
2023-12-21T02:49:22.621Z,7.61
2023-12-21T02:51:57.617Z,7.63
2023-12-21T02:54:27.559Z,7.63
2023-12-21T02:57:01.925Z,7.65
2023-12-21T02:59:33.814Z,7.63
2023-12-21T03:02:03.187Z,7.67
2023-12-21T03:04:38.305Z,7.63
2023-12-21T03:07:12.650Z,7.64
2023-12-21T03:09:42.064Z,7.69
2023-12-21T03:12:14.056Z,7.67
2023-12-21T03:14:40.802Z,7.70
2023-12-21T03:17:10.684Z,7.70
2023-12-21T03:19:45.908Z,7.66
2023-12-21T03:22:12.859Z,7.71
2023-12-21T03:24:44.335Z,7.66
2023-12-21T03:27:12.485Z,7.68
2023-12-21T03:29:47.375Z,7.67
2023-12-21T03:32:27.189Z,7.67
2023-12-21T03:34:56.425Z,7.66
2023-12-21T03:37:30.640Z,7.67
2023-12-21T03:40:03.212Z,7.69
2023-12-21T03:42:39.498Z,7.66
2023-12-21T03:45:11.378Z,7.71
2023-12-21T03:47:41.173Z,7.69
2023-12-21T03:50:14.337Z,7.67
2023-12-21T03:52:43.789Z,7.72
2023-12-21T03:55:12.069Z,7.68
2023-12-21T03:57:45.859Z,7.71
2023-12-21T04:00:21.775Z,7.69
2023-12-21T04:02:52.645Z,7.65
2023-12-21T04:05:20.509Z,7.66
2023-12-21T04:07:53.677Z,7.68
2023-12-21T04:10:25.605Z,7.66
2023-12-21T04:12:58.162Z,7.67
2023-12-21T04:15:31.313Z,7.75
2023-12-21T04:18:03.358Z,7.74
2023-12-21T04:20:37.755Z,7.77
2023-12-21T04:23:12.810Z,7.77
2023-12-21T04:25:42.203Z,7.77
2023-12-21T04:28:16.507Z,7.71
2023-12-21T04:30:57.230Z,7.73
2023-12-21T04:33:32.102Z,7.72
2023-12-21T04:36:03.639Z,7.71
2023-12-21T04:38:38.112Z,7.71
2023-12-21T04:41:07.265Z,7.74
2023-12-21T04:43:39.820Z,7.74
2023-12-21T04:46:07.038Z,7.74
2023-12-21T04:48:40.361Z,7.72
2023-12-21T04:51:10.361Z,7.73
2023-12-21T04:53:42.243Z,7.68
2023-12-21T04:56:14.514Z,7.70
2023-12-21T04:58:49.881Z,7.67
2023-12-21T05:01:19.161Z,7.70
2023-12-21T05:03:51.599Z,7.71
2023-12-21T05:06:18.570Z,7.69
2023-12-21T05:08:53.086Z,7.73
2023-12-21T05:11:25.625Z,7.70
2023-12-21T05:13:52.310Z,7.71
2023-12-21T05:16:29.947Z,7.72
2023-12-21T05:18:59.633Z,7.73
2023-12-21T05:21:31.329Z,7.69
2023-12-21T05:24:03.582Z,7.72
2023-12-21T05:26:35.486Z,7.72
2023-12-21T05:29:08.112Z,7.70
2023-12-21T05:31:43.172Z,7.71
2023-12-21T05:34:14.869Z,7.71
2023-12-21T05:36:47.436Z,7.73
2023-12-21T05:39:18.113Z,7.73
2023-12-21T05:41:50.375Z,7.74
2023-12-21T05:44:23.418Z,7.74
2023-12-21T05:46:55.432Z,7.75
2023-12-21T05:49:23.539Z,7.77
2023-12-21T05:52:00.539Z,7.79
2023-12-21T05:54:34.359Z,7.80
2023-12-21T05:57:09.760Z,7.81
2023-12-21T05:59:38.545Z,7.78
2023-12-21T06:02:16.582Z,7.81
2023-12-21T06:04:54.478Z,7.78
2023-12-21T06:07:27.908Z,7.80
2023-12-21T06:10:00.445Z,7.83
2023-12-21T06:12:34.914Z,7.81
2023-12-21T06:15:10.585Z,7.82
2023-12-21T06:17:49.355Z,7.83
2023-12-21T06:20:24.585Z,7.85
2023-12-21T06:22:54.351Z,7.88
2023-12-21T06:25:26.998Z,7.85
2023-12-21T06:27:59.494Z,7.84
2023-12-21T06:30:34.636Z,7.85
2023-12-21T06:33:09.954Z,7.86
2023-12-21T06:35:37.495Z,7.89
2023-12-21T06:38:13.225Z,7.92
2023-12-21T06:40:50.428Z,7.92
2023-12-21T06:43:20.865Z,7.91
2023-12-21T06:45:53.137Z,7.91
2023-12-21T06:48:34.281Z,7.89
2023-12-21T06:51:03.647Z,7.92
2023-12-21T06:53:35.844Z,7.91
2023-12-21T06:56:23.783Z,7.90
2023-12-21T06:59:03.491Z,7.90
2023-12-21T07:01:36.740Z,7.89
2023-12-21T07:04:08.551Z,7.92
2023-12-21T07:06:39.087Z,7.89
2023-12-21T07:09:10.612Z,7.90
2023-12-21T07:11:42.212Z,7.93
2023-12-21T07:14:16.597Z,7.90
2023-12-21T07:16:46.289Z,7.91
2023-12-21T07:19:16.020Z,7.93
2023-12-21T07:21:45.954Z,7.96
2023-12-21T07:24:15.398Z,7.95
2023-12-21T07:26:42.126Z,7.95
2023-12-21T07:29:11.080Z,7.95
2023-12-21T07:31:40.897Z,8.05
2023-12-21T07:34:15.841Z,8.01
2023-12-21T07:36:42.696Z,8.02
2023-12-21T07:39:19.056Z,8.01
2023-12-21T07:41:51.605Z,8.01
2023-12-21T07:44:23.573Z,8.02
2023-12-21T07:46:57.480Z,8.01
2023-12-21T07:49:27.024Z,7.97
2023-12-21T07:51:59.357Z,7.99
2023-12-21T07:54:26.151Z,7.97
2023-12-21T07:56:52.785Z,7.95
2023-12-21T07:59:25.266Z,7.96
2023-12-21T08:01:57.602Z,7.96
2023-12-21T08:04:29.489Z,7.98
2023-12-21T08:06:58.229Z,8.00
2023-12-21T08:09:25.733Z,8.01
2023-12-21T08:12:03.354Z,8.04
2023-12-21T08:14:37.096Z,8.02
2023-12-21T08:17:15.205Z,8.09
2023-12-21T08:19:48.136Z,8.06
2023-12-21T08:22:17.858Z,8.10
2023-12-21T08:24:52.493Z,8.09
2023-12-21T08:27:23.544Z,8.11
2023-12-21T08:29:52.941Z,8.09
2023-12-21T08:32:22.010Z,8.09
2023-12-21T08:34:50.923Z,8.10
2023-12-21T08:37:23.500Z,8.09
2023-12-21T08:39:57.927Z,8.12
2023-12-21T08:42:29.830Z,8.10
2023-12-21T08:44:59.540Z,8.16
2023-12-21T08:47:29.039Z,8.16
2023-12-21T08:50:05.133Z,8.16
2023-12-21T08:52:42.959Z,8.18
2023-12-21T08:55:10.688Z,8.19
2023-12-21T08:57:43.134Z,8.14
2023-12-21T09:00:15.592Z,8.18
2023-12-21T09:02:45.844Z,8.15
2023-12-21T09:05:15.472Z,8.18
2023-12-21T09:07:42.768Z,8.21
2023-12-21T09:10:12.716Z,8.17
2023-12-21T09:12:43.686Z,8.18
2023-12-21T09:15:12.740Z,8.21
2023-12-21T09:17:39.639Z,8.25
2023-12-21T09:20:09.896Z,8.21
2023-12-21T09:22:43.371Z,8.21
2023-12-21T09:25:17.448Z,8.21
2023-12-21T09:27:54.932Z,8.23
2023-12-21T09:30:25.410Z,8.24
2023-12-21T09:32:55.812Z,8.25
2023-12-21T09:35:22.972Z,8.27
2023-12-21T09:37:53.977Z,8.27
2023-12-21T09:40:22.598Z,8.27
2023-12-21T09:43:05.204Z,8.27
2023-12-21T09:45:44.925Z,8.29
2023-12-21T09:48:13.012Z,8.32
2023-12-21T09:50:48.323Z,8.33
2023-12-21T09:53:23.756Z,8.34
2023-12-21T09:56:00.857Z,8.35
2023-12-21T09:58:30.751Z,8.34
2023-12-21T10:01:09.479Z,8.39
2023-12-21T10:03:38.620Z,8.37
2023-12-21T10:06:08.830Z,8.36
2023-12-21T10:08:38.775Z,8.38
2023-12-21T10:11:11.162Z,8.41
2023-12-21T10:13:49.098Z,8.45
2023-12-21T10:16:22.487Z,8.43
2023-12-21T10:18:51.883Z,8.44
2023-12-21T10:21:26.979Z,8.48
2023-12-21T10:23:59.380Z,8.47
2023-12-21T10:26:34.203Z,8.49
2023-12-21T10:29:06.791Z,8.49
2023-12-21T10:31:38.788Z,8.50
2023-12-21T10:34:08.123Z,8.53
2023-12-21T10:36:41.097Z,8.52
2023-12-21T10:39:22.668Z,8.53
2023-12-21T10:42:00.555Z,8.57
2023-12-21T10:44:27.343Z,8.58
2023-12-21T10:47:02.422Z,8.57
2023-12-21T10:49:31.824Z,8.58
2023-12-21T10:52:05.700Z,8.58
2023-12-21T10:54:41.787Z,8.58
2023-12-21T10:57:14.151Z,8.64
2023-12-21T10:59:44.849Z,8.67
2023-12-21T11:02:14.929Z,8.67
2023-12-21T11:04:45.476Z,8.70
2023-12-21T11:07:20.038Z,8.67
2023-12-21T11:09:49.500Z,8.70
2023-12-21T11:12:19.052Z,8.71
2023-12-21T11:14:53.737Z,8.74
2023-12-21T11:17:23.179Z,8.75
2023-12-21T11:19:51.793Z,8.79
2023-12-21T11:22:24.059Z,8.83
2023-12-21T11:25:14.072Z,8.84
2023-12-21T11:27:46.898Z,8.87
2023-12-21T11:30:16.979Z,8.94
2023-12-21T11:32:50.874Z,8.94
2023-12-21T11:35:28.366Z,8.94
2023-12-21T11:38:02.255Z,8.96
2023-12-21T11:40:31.020Z,9.07
2023-12-21T11:43:06.767Z,9.08
2023-12-21T11:45:42.722Z,9.11
2023-12-21T11:48:18.501Z,9.11
2023-12-21T11:50:50.512Z,9.18
2023-12-21T11:53:33.075Z,9.18
2023-12-21T11:56:23.205Z,9.27
2023-12-21T11:58:53.337Z,9.38
2023-12-21T12:01:28.672Z,9.48
2023-12-21T12:03:59.354Z,9.52
2023-12-21T12:06:30.690Z,9.55
2023-12-21T12:08:57.822Z,9.59
2023-12-21T12:11:28.155Z,9.56
2023-12-21T12:13:59.772Z,9.59
2023-12-21T12:16:30.079Z,9.57
2023-12-21T12:19:08.635Z,9.61
2023-12-21T12:21:38.738Z,9.67
2023-12-21T12:24:08.826Z,9.71
2023-12-21T12:26:35.761Z,9.71
2023-12-21T12:29:10.253Z,9.67
2023-12-21T12:31:40.589Z,9.60
2023-12-21T12:34:13.491Z,9.68
2023-12-21T12:36:43.550Z,9.61
2023-12-21T12:39:13.269Z,9.67
2023-12-21T12:41:49.766Z,9.66
2023-12-21T12:44:23.079Z,9.69
2023-12-21T12:46:58.505Z,9.72
2023-12-21T12:49:34.617Z,9.76
2023-12-21T12:52:08.270Z,9.72
2023-12-21T12:54:43.838Z,9.72
2023-12-21T12:57:14.044Z,9.77
2023-12-21T12:59:48.831Z,9.85
2023-12-21T13:02:21.174Z,9.80
2023-12-21T13:04:51.945Z,9.83
2023-12-21T13:07:25.711Z,9.83
2023-12-21T13:10:09.051Z,9.81
2023-12-21T13:12:46.094Z,9.78
2023-12-21T13:15:16.959Z,9.76
2023-12-21T13:17:49.520Z,9.71
2023-12-21T13:20:28.585Z,9.64
2023-12-21T13:22:58.275Z,9.59
2023-12-21T13:25:28.291Z,9.77
2023-12-21T13:28:11.109Z,9.82
2023-12-21T13:30:46.882Z,9.83
2023-12-21T13:33:17.350Z,9.69
2023-12-21T13:35:49.988Z,9.76
2023-12-21T13:38:20.646Z,9.85
2023-12-21T13:40:55.056Z,9.96
2023-12-21T13:43:27.788Z,9.99
2023-12-21T13:46:01.406Z,9.99
2023-12-21T13:48:29.027Z,10.01
2023-12-21T13:50:56.323Z,9.98
2023-12-21T13:53:25.893Z,10.04
2023-12-21T13:55:55.572Z,9.99
2023-12-21T13:58:28.310Z,9.95
2023-12-21T14:01:04.043Z,9.97
2023-12-21T14:03:39.629Z,9.93
2023-12-21T14:06:12.536Z,9.93
2023-12-21T14:08:43.893Z,9.89
2023-12-21T14:11:13.997Z,9.92
2023-12-21T14:13:40.811Z,9.98
2023-12-21T14:16:11.099Z,9.94
2023-12-21T14:18:42.344Z,9.91
2023-12-21T14:21:17.890Z,9.91
2023-12-21T14:23:50.031Z,9.79
2023-12-21T14:26:24.819Z,9.77
2023-12-21T14:28:57.798Z,9.72
2023-12-21T14:31:30.652Z,9.57
2023-12-21T14:34:03.050Z,9.31
2023-12-21T14:36:35.010Z,9.19
2023-12-21T14:39:07.185Z,9.13
2023-12-21T14:41:38.585Z,9.17
2023-12-21T14:44:11.040Z,9.15
2023-12-21T14:46:51.132Z,9.29
2023-12-21T14:49:32.287Z,9.23
2023-12-21T14:52:05.361Z,9.28
2023-12-21T14:54:38.837Z,9.29
2023-12-21T14:57:19.509Z,9.23
2023-12-21T14:59:49.403Z,9.16
2023-12-21T15:02:23.015Z,9.20
2023-12-21T15:04:49.810Z,9.16
2023-12-21T15:07:25.638Z,9.21
2023-12-21T15:10:02.570Z,9.23
2023-12-21T15:12:34.954Z,9.19
2023-12-21T15:15:12.796Z,9.15
2023-12-21T15:17:42.439Z,9.17
2023-12-21T15:20:12.505Z,9.09
2023-12-21T15:22:46.097Z,9.18
2023-12-21T15:25:17.905Z,9.24
2023-12-21T15:27:50.661Z,9.15
2023-12-21T15:30:26.404Z,9.15
2023-12-21T15:32:56.397Z,9.10
2023-12-21T15:35:29.159Z,9.13
2023-12-21T15:37:58.740Z,9.08
2023-12-21T15:40:28.908Z,9.12
2023-12-21T15:42:55.590Z,9.15
2023-12-21T15:45:25.585Z,9.19
2023-12-21T15:47:53.166Z,9.16
2023-12-21T15:50:25.300Z,9.29
2023-12-21T15:52:57.129Z,9.19
2023-12-21T15:55:28.104Z,9.13
2023-12-21T15:57:58.062Z,8.87
2023-12-21T16:00:36.997Z,8.83
2023-12-21T16:03:09.538Z,8.74
2023-12-21T16:05:40.199Z,8.66
2023-12-21T16:08:12.795Z,8.58
2023-12-21T16:10:48.966Z,8.60
2023-12-21T16:13:17.386Z,8.52
2023-12-21T16:15:49.906Z,8.63
2023-12-21T16:18:27.816Z,8.59
2023-12-21T16:20:57.428Z,8.63
2023-12-21T16:23:32.229Z,8.79
2023-12-21T16:26:13.823Z,8.73
2023-12-21T16:28:47.374Z,8.66
2023-12-21T16:31:21.548Z,8.63
2023-12-21T16:33:53.319Z,8.70
2023-12-21T16:36:21.975Z,8.68
2023-12-21T16:38:52.720Z,8.53
2023-12-21T16:41:27.666Z,8.34
2023-12-21T16:43:59.526Z,8.06
2023-12-21T16:46:34.288Z,7.65
2023-12-21T16:49:05.112Z,7.31
2023-12-21T16:51:39.707Z,6.82
2023-12-21T16:54:08.653Z,6.59
2023-12-21T16:56:37.724Z,5.92
2023-12-21T16:59:09.181Z,5.49
2023-12-21T17:01:42.085Z,5.19
2023-12-21T17:04:11.792Z,5.11
2023-12-21T17:06:46.845Z,5.09
2023-12-21T17:09:22.104Z,5.03
2023-12-21T17:11:53.961Z,5.01
2023-12-21T17:14:20.770Z,5.03
2023-12-21T17:16:52.686Z,5.18
2023-12-21T17:19:27.786Z,5.29
2023-12-21T17:22:04.202Z,5.38
2023-12-21T17:24:31.766Z,5.32
2023-12-21T17:27:03.500Z,5.28
2023-12-21T17:29:35.663Z,5.35
2023-12-21T17:32:06.661Z,5.49
2023-12-21T17:34:41.739Z,5.63
2023-12-21T17:37:08.825Z,5.79
2023-12-21T17:39:35.579Z,5.75
2023-12-21T17:42:08.174Z,5.55
2023-12-21T17:44:40.209Z,5.41
2023-12-21T17:47:13.217Z,5.44
2023-12-21T17:49:41.399Z,5.56
2023-12-21T17:52:15.252Z,5.64
2023-12-21T17:54:48.102Z,5.71
2023-12-21T17:57:25.722Z,5.69
2023-12-21T17:59:58.474Z,5.63
2023-12-21T18:02:30.654Z,5.42
2023-12-21T18:05:04.948Z,5.29
2023-12-21T18:07:43.364Z,5.16
2023-12-21T18:10:18.147Z,5.05
2023-12-21T18:12:56.688Z,4.94
2023-12-21T18:15:34.263Z,4.81
2023-12-21T18:18:12.882Z,4.74
2023-12-21T18:20:45.838Z,4.67
2023-12-21T18:23:21.329Z,4.71
2023-12-21T18:26:02.170Z,4.79
2023-12-21T18:28:38.145Z,4.79
2023-12-21T18:31:09.593Z,4.73
2023-12-21T18:33:37.823Z,4.77
2023-12-21T18:36:08.592Z,4.78
2023-12-21T18:38:39.358Z,4.79
2023-12-21T18:41:09.077Z,4.73
2023-12-21T18:43:42.271Z,4.70
2023-12-21T18:46:16.785Z,4.77
2023-12-21T18:48:52.852Z,4.77
2023-12-21T18:51:31.417Z,4.74
2023-12-21T18:54:00.801Z,4.80
2023-12-21T18:56:30.820Z,4.87
2023-12-21T18:59:00.697Z,4.87
2023-12-21T19:01:34.255Z,4.85
2023-12-21T19:04:05.486Z,4.82
2023-12-21T19:06:37.503Z,4.79
2023-12-21T19:09:13.613Z,4.84
2023-12-21T19:11:43.625Z,4.80
2023-12-21T19:14:16.284Z,4.78
2023-12-21T19:16:55.617Z,4.84
2023-12-21T19:19:27.936Z,4.74
2023-12-21T19:21:57.699Z,4.79
2023-12-21T19:24:42.463Z,4.77
2023-12-21T19:27:12.382Z,4.81
2023-12-21T19:29:45.682Z,4.81
2023-12-21T19:32:21.201Z,4.85
2023-12-21T19:34:50.726Z,4.82
2023-12-21T19:37:19.479Z,4.86
2023-12-21T19:39:55.240Z,4.82
2023-12-21T19:42:31.680Z,4.91
2023-12-21T19:45:08.541Z,4.96
2023-12-21T19:47:41.562Z,5.06
2023-12-21T19:50:18.057Z,5.15
2023-12-21T19:53:03.072Z,5.16
2023-12-21T19:55:34.380Z,5.18
2023-12-21T19:58:07.218Z,5.14
2023-12-21T20:00:41.458Z,5.15
2023-12-21T20:03:14.753Z,5.18
2023-12-21T20:05:47.856Z,5.23
2023-12-21T20:08:28.345Z,5.21
2023-12-21T20:10:59.700Z,5.07
2023-12-21T20:13:40.287Z,5.03
2023-12-21T20:16:15.442Z,5.01
2023-12-21T20:18:47.739Z,5.16
2023-12-21T20:21:35.973Z,5.11
2023-12-21T20:24:13.246Z,5.08
2023-12-21T20:26:45.517Z,5.16
2023-12-21T20:29:16.379Z,5.05
2023-12-21T20:31:50.856Z,5.03
2023-12-21T20:34:44.283Z,4.97
2023-12-21T20:37:16.797Z,4.97
2023-12-21T20:39:47.291Z,4.98
2023-12-21T20:42:25.366Z,4.98
2023-12-21T20:44:55.191Z,4.97
2023-12-21T20:47:35.717Z,5.00
2023-12-21T20:50:11.865Z,5.04
2023-12-21T20:52:51.185Z,5.19
2023-12-21T20:55:27.479Z,5.21
2023-12-21T20:58:00.336Z,5.23
2023-12-21T21:00:39.651Z,5.21
2023-12-21T21:03:15.727Z,5.22
2023-12-21T21:05:51.549Z,5.25
2023-12-21T21:08:25.292Z,5.23
2023-12-21T21:10:56.832Z,5.27
2023-12-21T21:13:39.278Z,5.28
2023-12-21T21:16:15.441Z,5.22
2023-12-21T21:18:49.942Z,5.20
2023-12-21T21:21:19.321Z,5.19
2023-12-21T21:23:52.360Z,5.13
2023-12-21T21:26:21.865Z,5.17
2023-12-21T21:28:53.987Z,5.15
2023-12-21T21:31:22.857Z,5.15
2023-12-21T21:33:51.958Z,5.10
2023-12-21T21:36:20.993Z,5.09
2023-12-21T21:38:53.039Z,5.13
2023-12-21T21:41:24.466Z,5.17
2023-12-21T21:43:56.905Z,5.25
2023-12-21T21:46:26.445Z,5.27
2023-12-21T21:48:55.580Z,5.22
2023-12-21T21:51:25.202Z,5.32
2023-12-21T21:53:58.194Z,5.34
2023-12-21T21:56:30.539Z,5.36
2023-12-21T21:59:02.076Z,5.38
2023-12-21T22:01:34.496Z,5.56
2023-12-21T22:04:09.653Z,5.50
2023-12-21T22:06:42.348Z,5.50
2023-12-21T22:09:11.994Z,5.31
2023-12-21T22:11:45.251Z,5.32
2023-12-21T22:14:20.373Z,5.24
2023-12-21T22:16:52.613Z,5.16
2023-12-21T22:19:27.020Z,5.06
2023-12-21T22:21:58.207Z,5.09
2023-12-21T22:24:28.030Z,5.18
2023-12-21T22:26:57.385Z,5.14
2023-12-21T22:29:23.989Z,5.14
2023-12-21T22:31:58.354Z,5.14
2023-12-21T22:34:33.313Z,5.07
2023-12-21T22:37:07.205Z,5.07
2023-12-21T22:39:39.201Z,5.08
2023-12-21T22:42:14.649Z,5.00
2023-12-21T22:44:44.438Z,5.02
2023-12-21T22:47:15.318Z,5.12
2023-12-21T22:49:47.766Z,5.22
2023-12-21T22:52:22.590Z,5.28
2023-12-21T22:54:59.987Z,5.30
2023-12-21T22:57:33.404Z,5.33
2023-12-21T23:00:06.418Z,5.36
2023-12-21T23:02:38.728Z,5.33
2023-12-21T23:05:09.378Z,5.36
2023-12-21T23:07:43.898Z,5.46
2023-12-21T23:10:16.268Z,5.33
2023-12-21T23:12:48.758Z,5.35
2023-12-21T23:15:22.674Z,5.38
2023-12-21T23:17:55.129Z,5.27
2023-12-21T23:20:24.589Z,5.26
2023-12-21T23:23:00.019Z,5.28
2023-12-21T23:25:32.352Z,5.34
2023-12-21T23:27:59.157Z,5.30
2023-12-21T23:30:25.929Z,5.31
2023-12-21T23:32:58.024Z,5.31
2023-12-21T23:35:25.486Z,5.36
2023-12-21T23:37:55.838Z,5.30
2023-12-21T23:40:26.772Z,5.28
2023-12-21T23:43:07.341Z,5.33
2023-12-21T23:45:42.375Z,5.30
2023-12-21T23:48:11.648Z,5.38
2023-12-21T23:50:46.889Z,5.26
2023-12-21T23:53:21.899Z,5.22
2023-12-21T23:55:54.562Z,5.25
2023-12-21T23:58:27.313Z,5.09
